| time (UTC) | temp F | wind direction | speed MPH | gust MPH | rain 1hr in | rain 24hr in | rain mn in | humidity % | barometer mb |
| 20260508224518 | 66 | 212 | 0.0 | 2.0 | 0.00 | 0.00 | 0.00 | 45 | 983.4 |
| 20260508223947 | 69 | 248 | 0.0 | 1.0 | 0.00 | 0.00 | 0.00 | 39 | 983.4 |
| 20260508223318 | 70 | 231 | 2.0 | 2.0 | 0.00 | 0.00 | 0.00 | 42 | 983.4 |
| 20260508222127 | 73 | 200 | 2.0 | 2.0 | 0.00 | 0.00 | 0.00 | 38 | 983.7 |
| 20260508221541 | 73 | 105 | 0.0 | 2.0 | 0.00 | 0.00 | 0.00 | 34 | 983.4 |
| 20260508220935 | 73 | 85 | 1.0 | 2.0 | 0.00 | 0.00 | 0.00 | 37 | 983.4 |
| 20260508220310 | 72 | 287 | 0.0 | 2.0 | 0.00 | 0.00 | 0.00 | 31 | 983.4 |
| 20260508215732 | 72 | 273 | 2.0 | 4.0 | 0.00 | 0.00 | 0.00 | 30 | 983.7 |
| 20260508214546 | 72 | 212 | 1.0 | 2.0 | 0.00 | 0.00 | 0.00 | 33 | 983.4 |
| 20260508213913 | 73 | 251 | 3.0 | 7.0 | 0.00 | 0.00 | 0.00 | 31 | 983.7 |
| 20260508212116 | 72 | 195 | 1.0 | 4.0 | 0.00 | 0.00 | 0.00 | 34 | 983.7 |
| 20260508211515 | 72 | 353 | 2.0 | 4.0 | 0.00 | 0.00 | 0.00 | 35 | 983.7 |
| 20260508210918 | 72 | 46 | 2.0 | 4.0 | 0.00 | 0.00 | 0.00 | 38 | 984.0 |
| 20260508210319 | 73 | 36 | 3.0 | 9.0 | 0.00 | 0.00 | 0.00 | 35 | 983.7 |
| 20260508205739 | 73 | 202 | 1.0 | 3.0 | 0.00 | 0.00 | 0.00 | 36 | 984.0 |
| 20260508205124 | 73 | 7 | 1.0 | 3.0 | 0.00 | 0.00 | 0.00 | 32 | 983.7 |
| 20260508204551 | 72 | 286 | 1.0 | 3.0 | 0.00 | 0.00 | 0.00 | 35 | 984.0 |
| 20260508203919 | 73 | 179 | 4.0 | 6.0 | 0.00 | 0.00 | 0.00 | 34 | 984.4 |
| 20260508203320 | 72 | 193 | 0.0 | 2.0 | 0.00 | 0.00 | 0.00 | 36 | 984.4 |
| 20260508202734 | 71 | 79 | 1.0 | 4.0 | 0.00 | 0.00 | 0.00 | 35 | 984.4 |
| 20260508202114 | 72 | 288 | 1.0 | 3.0 | 0.00 | 0.00 | 0.00 | 39 | 984.4 |
| 20260508201518 | 72 | 4 | 2.0 | 4.0 | 0.00 | 0.00 | 0.00 | 35 | 984.7 |
| 20260508200949 | 71 | 315 | 6.0 | 9.0 | 0.00 | 0.00 | 0.00 | 35 | 985.1 |
| 20260508200343 | 71 | 332 | 0.0 | 2.0 | 0.00 | 0.00 | 0.00 | 42 | 985.1 |
| 20260508195740 | 70 | 47 | 4.0 | 9.0 | 0.00 | 0.00 | 0.00 | 36 | 984.7 |
| 20260508195133 | 71 | 160 | 3.0 | 6.0 | 0.00 | 0.00 | 0.00 | 36 | 984.7 |
| 20260508194552 | 70 | 274 | 1.0 | 9.0 | 0.00 | 0.00 | 0.00 | 36 | 985.1 |
| 20260508193931 | 70 | 284 | 2.0 | 4.0 | 0.00 | 0.00 | 0.00 | 34 | 985.1 |
| 20260508193322 | 71 | 291 | 3.0 | 7.0 | 0.00 | 0.00 | 0.00 | 34 | 985.1 |
| 20260508192726 | 71 | 142 | 4.0 | 8.0 | 0.00 | 0.00 | 0.00 | 35 | 985.4 |
| 20260508192146 | 71 | 335 | 4.0 | 8.0 | 0.00 | 0.00 | 0.00 | 34 | 985.4 |
| 20260508191549 | 70 | 351 | 1.0 | 3.0 | 0.00 | 0.00 | 0.00 | 38 | 985.4 |
| 20260508190935 | 70 | 14 | 1.0 | 3.0 | 0.00 | 0.00 | 0.00 | 36 | 985.7 |
| 20260508190343 | 70 | 263 | 1.0 | 4.0 | 0.00 | 0.00 | 0.00 | 35 | 985.7 |
| 20260508185114 | 70 | 128 | 1.0 | 3.0 | 0.00 | 0.00 | 0.00 | 38 | 985.7 |
| 20260508184545 | 70 | 120 | 2.0 | 3.0 | 0.00 | 0.00 | 0.00 | 35 | 986.1 |
| 20260508183943 | 69 | 189 | 3.0 | 6.0 | 0.00 | 0.00 | 0.00 | 36 | 986.1 |
| 20260508183338 | 70 | 351 | 1.0 | 6.0 | 0.00 | 0.00 | 0.00 | 41 | 986.4 |
| 20260508182736 | 69 | 155 | 0.0 | 4.0 | 0.00 | 0.00 | 0.00 | 34 | 986.4 |
| 20260508181532 | 70 | 230 | 4.0 | 6.0 | 0.00 | 0.00 | 0.00 | 35 | 986.4 |
| 20260508180921 | 70 | 260 | 1.0 | 4.0 | 0.00 | 0.00 | 0.00 | 38 | 986.7 |
| 20260508180349 | 70 | 316 | 1.0 | 2.0 | 0.00 | 0.00 | 0.00 | 37 | 986.7 |
| 20260508175740 | 69 | 96 | 1.0 | 3.0 | 0.00 | 0.00 | 0.00 | 40 | 987.1 |
| 20260508175143 | 68 | 225 | 5.0 | 7.0 | 0.00 | 0.00 | 0.00 | 40 | 987.1 |
| 20260508174511 | 68 | 37 | 3.0 | 4.0 | 0.00 | 0.00 | 0.00 | 37 | 987.1 |
| 20260508173923 | 66 | 318 | 0.0 | 2.0 | 0.00 | 0.00 | 0.00 | 39 | 986.7 |
| 20260508173320 | 66 | 331 | 1.0 | 2.0 | 0.00 | 0.00 | 0.00 | 40 | 986.7 |
| 20260508172740 | 69 | 299 | 5.0 | 7.0 | 0.00 | 0.00 | 0.00 | 37 | 987.1 |
| 20260508172148 | 69 | 153 | 2.0 | 4.0 | 0.00 | 0.00 | 0.00 | 38 | 987.1 |
| 20260508170940 | 67 | 182 | 1.0 | 4.0 | 0.00 | 0.00 | 0.00 | 36 | 987.4 |
| 20260508170314 | 68 | 310 | 2.0 | 4.0 | 0.00 | 0.00 | 0.00 | 36 | 987.4 |
| 20260508165709 | 69 | 293 | 2.0 | 3.0 | 0.00 | 0.00 | 0.00 | 36 | 987.4 |
| 20260508165120 | 69 | 74 | 0.0 | 2.0 | 0.00 | 0.00 | 0.00 | 36 | 987.4 |
| 20260508164533 | 68 | 109 | 3.0 | 6.0 | 0.00 | 0.00 | 0.00 | 41 | 987.8 |
| 20260508163331 | 66 | 327 | 2.0 | 3.0 | 0.00 | 0.00 | 0.00 | 38 | 988.1 |
| 20260508162723 | 66 | 326 | 1.0 | 2.0 | 0.00 | 0.00 | 0.00 | 38 | 988.4 |
| 20260508162130 | 67 | 141 | 2.0 | 6.0 | 0.00 | 0.00 | 0.00 | 40 | 988.1 |
| 20260508161515 | 67 | 181 | 2.0 | 3.0 | 0.00 | 0.00 | 0.00 | 38 | 988.4 |
| 20260508160931 | 68 | 191 | 1.0 | 2.0 | 0.00 | 0.00 | 0.00 | 38 | 988.4 |
| 20260508160338 | 67 | 125 | 2.0 | 3.0 | 0.00 | 0.00 | 0.00 | 45 | 988.4 |
| 20260508155110 | 67 | 111 | 2.0 | 3.0 | 0.00 | 0.00 | 0.00 | 42 | 988.4 |
| 20260508154521 | 66 | 146 | 0.0 | 2.0 | 0.00 | 0.00 | 0.00 | 41 | 988.4 |
| 20260508153937 | 66 | 52 | 2.0 | 3.0 | 0.00 | 0.00 | 0.00 | 43 | 988.4 |
| 20260508153342 | 67 | 73 | 0.0 | 2.0 | 0.00 | 0.00 | 0.00 | 46 | 988.4 |
| 20260508152746 | 66 | 224 | 0.0 | 1.0 | 0.00 | 0.00 | 0.00 | 43 | 988.8 |
| 20260508151536 | 65 | 92 | 1.0 | 2.0 | 0.00 | 0.00 | 0.00 | 50 | 988.8 |
| 20260508150945 | 66 | 75 | 2.0 | 2.0 | 0.00 | 0.00 | 0.00 | 49 | 988.4 |
| 20260508145746 | 62 | 101 | 1.0 | 3.0 | 0.00 | 0.00 | 0.00 | 55 | 988.8 |
| 20260508145148 | 62 | 86 | 1.0 | 2.0 | 0.00 | 0.00 | 0.00 | 59 | 988.8 |
| 20260508143942 | 61 | 105 | 1.0 | 2.0 | 0.00 | 0.00 | 0.00 | 65 | 988.8 |
| 20260508142727 | 59 | 93 | 1.0 | 2.0 | 0.00 | 0.00 | 0.00 | 67 | 989.1 |
| 20260508142148 | 57 | 55 | 1.0 | 2.0 | 0.00 | 0.00 | 0.00 | 68 | 989.5 |
| 20260508141518 | 56 | 54 | 2.0 | 2.0 | 0.00 | 0.00 | 0.00 | 70 | 989.5 |
| 20260508140935 | 55 | 58 | 2.0 | 4.0 | 0.00 | 0.00 | 0.00 | 68 | 989.5 |
| 20260508135748 | 53 | 47 | 2.0 | 4.0 | 0.00 | 0.00 | 0.00 | 73 | 989.5 |
| 20260508135145 | 53 | 77 | 1.0 | 1.0 | 0.00 | 0.00 | 0.00 | 74 | 989.5 |
| 20260508134522 | 53 | 25 | 0.0 | 0.0 | 0.00 | 0.00 | 0.00 | 76 | 989.5 |
| 20260508133915 | 52 | 170 | 0.0 | 1.0 | 0.00 | 0.00 | 0.00 | 79 | 989.8 |
| 20260508133312 | 51 | 29 | 0.0 | 2.0 | 0.00 | 0.00 | 0.00 | 78 | 989.8 |
| 20260508132726 | 50 | 62 | 0.0 | 1.0 | 0.00 | 0.00 | 0.00 | 81 | 989.8 |
| 20260508132122 | 49 | 78 | 1.0 | 3.0 | 0.00 | 0.00 | 0.00 | 80 | 989.8 |
| 20260508130308 | 47 | 62 | 1.0 | 3.0 | 0.00 | 0.00 | 0.00 | 84 | 990.1 |
| 20260508125126 | 45 | 73 | 1.0 | 2.0 | 0.00 | 0.00 | 0.00 | 87 | 990.5 |
| 20260508123936 | 44 | 359 | 2.0 | 2.0 | 0.00 | 0.00 | 0.00 | 91 | 990.1 |
| 20260508123350 | 42 | 82 | 3.0 | 4.0 | 0.00 | 0.00 | 0.00 | 95 | 990.5 |
| 20260508122731 | 41 | 88 | 1.0 | 2.0 | 0.00 | 0.00 | 0.00 | 97 | 990.5 |
| 20260508122120 | 40 | 69 | 1.0 | 3.0 | 0.00 | 0.00 | 0.00 | 97 | 990.1 |
| 20260508121537 | 40 | 65 | 2.0 | 4.0 | 0.00 | 0.00 | 0.00 | 98 | 990.1 |
| 20260508120920 | 40 | 26 | 0.0 | 2.0 | 0.00 | 0.00 | 0.00 | 98 | 990.5 |
| 20260508115710 | 39 | 87 | 0.0 | 1.0 | 0.00 | 0.00 | 0.00 | 99 | 990.5 |
| 20260508115148 | 39 | 108 | 1.0 | 2.0 | 0.00 | 0.00 | 0.00 | 99 | 990.1 |
| 20260508114519 | 39 | 84 | 1.0 | 3.0 | 0.00 | 0.00 | 0.00 | 99 | 990.1 |
| 20260508113930 | 38 | 116 | 1.0 | 2.0 | 0.00 | 0.00 | 0.00 | 99 | 990.1 |
| 20260508113316 | 38 | 96 | 1.0 | 1.0 | 0.00 | 0.00 | 0.00 | 99 | 990.1 |
| 20260508112719 | 38 | 116 | 0.0 | 2.0 | 0.00 | 0.00 | 0.00 | 99 | 990.1 |
| 20260508112143 | 38 | 101 | 0.0 | 1.0 | 0.00 | 0.00 | 0.00 | 99 | 989.8 |
| 20260508111542 | 38 | 116 | 1.0 | 1.0 | 0.00 | 0.00 | 0.00 | 99 | 989.8 |
| 20260508110922 | 38 | 118 | 0.0 | 1.0 | 0.00 | 0.00 | 0.00 | 99 | 990.1 |
| 20260508110326 | 39 | 143 | 1.0 | 2.0 | 0.00 | 0.00 | 0.00 | 99 | 989.8 |
| 20260508105142 | 38 | 101 | 1.0 | 3.0 | 0.00 | 0.00 | 0.00 | 99 | 989.5 |
| 20260508103936 | 38 | 103 | 1.0 | 2.0 | 0.00 | 0.00 | 0.00 | 99 | 989.5 |
| 20260508103338 | 38 | 241 | 0.0 | 1.0 | 0.00 | 0.00 | 0.00 | 99 | 989.5 |
| 20260508102715 | 38 | 168 | 1.0 | 2.0 | 0.00 | 0.00 | 0.00 | 99 | 989.8 |
| 20260508102115 | 38 | 135 | 0.0 | 2.0 | 0.00 | 0.00 | 0.00 | 99 | 989.8 |
| 20260508101512 | 38 | 162 | 0.0 | 1.0 | 0.00 | 0.00 | 0.00 | 99 | 989.5 |
| 20260508100938 | 38 | 90 | 1.0 | 1.0 | 0.00 | 0.00 | 0.00 | 99 | 989.8 |
| 20260508100331 | 38 | 164 | 0.0 | 1.0 | 0.00 | 0.00 | 0.00 | 99 | 989.5 |
| 20260508095748 | 39 | 113 | 1.0 | 2.0 | 0.00 | 0.00 | 0.00 | 99 | 989.5 |
| 20260508095130 | 38 | 186 | 2.0 | 3.0 | 0.00 | 0.00 | 0.00 | 99 | 989.5 |
| 20260508094522 | 38 | 93 | 0.0 | 1.0 | 0.00 | 0.00 | 0.00 | 99 | 989.5 |
| 20260508093943 | 38 | 234 | 0.0 | 1.0 | 0.00 | 0.00 | 0.00 | 99 | 989.5 |
| 20260508092722 | 38 | 192 | 1.0 | 1.0 | 0.00 | 0.00 | 0.00 | 99 | 989.1 |
| 20260508092142 | 37 | 100 | 0.0 | 1.0 | 0.00 | 0.00 | 0.00 | 99 | 989.5 |
| 20260508091528 | 38 | 207 | 0.0 | 3.0 | 0.00 | 0.00 | 0.00 | 99 | 989.5 |
| 20260508090932 | 38 | 197 | 1.0 | 2.0 | 0.00 | 0.00 | 0.00 | 99 | 989.1 |
| 20260508085139 | 38 | 217 | 1.0 | 2.0 | 0.00 | 0.00 | 0.00 | 99 | 989.1 |
| 20260508084547 | 39 | 148 | 0.0 | 1.0 | 0.00 | 0.00 | 0.00 | 99 | 989.1 |
| 20260508083912 | 38 | 168 | 0.0 | 1.0 | 0.00 | 0.00 | 0.00 | 99 | 989.1 |
| 20260508083313 | 38 | 193 | 1.0 | 2.0 | 0.00 | 0.00 | 0.00 | 99 | 989.1 |
| 20260508082735 | 38 | 213 | 0.0 | 2.0 | 0.00 | 0.00 | 0.00 | 99 | 988.8 |
| 20260508082150 | 38 | 162 | 2.0 | 2.0 | 0.00 | 0.00 | 0.00 | 99 | 988.8 |
| 20260508081537 | 38 | 200 | 1.0 | 2.0 | 0.00 | 0.00 | 0.00 | 99 | 989.1 |
| 20260508080328 | 39 | 184 | 1.0 | 2.0 | 0.00 | 0.00 | 0.00 | 99 | 989.1 |
| 20260508075731 | 39 | 196 | 0.0 | 2.0 | 0.00 | 0.00 | 0.00 | 99 | 988.8 |
| 20260508075120 | 40 | 193 | 1.0 | 1.0 | 0.00 | 0.00 | 0.00 | 99 | 988.8 |
| 20260508074529 | 40 | 207 | 1.0 | 2.0 | 0.00 | 0.00 | 0.00 | 99 | 988.8 |
| 20260508073327 | 39 | 191 | 1.0 | 2.0 | 0.00 | 0.00 | 0.00 | 99 | 988.8 |
| 20260508072733 | 39 | 220 | 1.0 | 3.0 | 0.00 | 0.00 | 0.00 | 99 | 988.4 |
| 20260508072115 | 39 | 209 | 2.0 | 2.0 | 0.00 | 0.00 | 0.00 | 99 | 988.4 |
| 20260508071537 | 38 | 169 | 3.0 | 3.0 | 0.00 | 0.00 | 0.00 | 99 | 988.4 |
| 20260508070950 | 39 | 185 | 2.0 | 3.0 | 0.00 | 0.00 | 0.00 | 99 | 988.4 |
| 20260508070338 | 39 | 168 | 1.0 | 2.0 | 0.00 | 0.00 | 0.00 | 99 | 988.8 |
| 20260508065738 | 39 | 253 | 0.0 | 2.0 | 0.00 | 0.00 | 0.00 | 99 | 988.4 |
| 20260508065133 | 39 | 229 | 1.0 | 2.0 | 0.00 | 0.00 | 0.00 | 99 | 988.4 |
| 20260508064520 | 39 | 216 | 1.0 | 2.0 | 0.00 | 0.00 | 0.00 | 99 | 988.8 |
| 20260508063925 | 39 | 181 | 2.0 | 3.0 | 0.00 | 0.00 | 0.00 | 99 | 988.8 |
| 20260508063318 | 39 | 208 | 2.0 | 3.0 | 0.00 | 0.00 | 0.00 | 99 | 988.8 |
| 20260508062742 | 39 | 200 | 1.0 | 2.0 | 0.00 | 0.00 | 0.00 | 99 | 988.8 |
| 20260508062146 | 39 | 188 | 1.0 | 2.0 | 0.00 | 0.00 | 0.00 | 99 | 988.8 |
| 20260508061530 | 39 | 220 | 0.0 | 2.0 | 0.00 | 0.00 | 0.00 | 99 | 988.8 |
| 20260508060909 | 39 | 189 | 1.0 | 1.0 | 0.00 | 0.00 | 0.00 | 99 | 988.8 |
| 20260508060341 | 40 | 170 | 2.0 | 2.0 | 0.00 | 0.00 | 0.00 | 99 | 988.4 |
| 20260508055751 | 40 | 200 | 1.0 | 1.0 | 0.00 | 0.00 | 0.00 | 99 | 989.1 |
| 20260508055141 | 40 | 206 | 1.0 | 1.0 | 0.00 | 0.00 | 0.00 | 99 | 989.1 |
| 20260508054544 | 40 | 218 | 0.0 | 1.0 | 0.00 | 0.00 | 0.00 | 99 | 988.8 |
| 20260508052737 | 40 | 218 | 0.0 | 1.0 | 0.00 | 0.00 | 0.00 | 99 | 988.8 |
| 20260508052132 | 40 | 208 | 0.0 | 1.0 | 0.00 | 0.00 | 0.00 | 99 | 988.8 |
| 20260508051526 | 40 | 226 | 0.0 | 1.0 | 0.00 | 0.00 | 0.00 | 99 | 988.4 |
| 20260508050945 | 40 | 248 | 0.0 | 1.0 | 0.00 | 0.00 | 0.00 | 99 | 988.8 |
| 20260508050309 | 41 | 219 | 0.0 | 1.0 | 0.00 | 0.00 | 0.00 | 99 | 988.4 |
| 20260508045724 | 41 | 201 | 0.0 | 1.0 | 0.00 | 0.00 | 0.00 | 99 | 988.4 |
| 20260508045128 | 41 | 208 | 0.0 | 1.0 | 0.00 | 0.00 | 0.00 | 99 | 988.8 |
| 20260508044542 | 41 | 209 | 0.0 | 0.0 | 0.00 | 0.00 | 0.00 | 99 | 988.4 |
| 20260508043936 | 41 | 207 | 0.0 | 0.0 | 0.00 | 0.00 | 0.00 | 99 | 988.4 |
| 20260508043347 | 41 | 207 | 0.0 | 0.0 | 0.00 | 0.00 | 0.00 | 99 | 988.4 |
| 20260508042723 | 41 | 207 | 0.0 | 0.0 | 0.00 | 0.00 | 0.00 | 99 | 988.4 |
| 20260508042141 | 41 | 207 | 1.0 | 1.0 | 0.00 | 0.00 | 0.00 | 99 | 988.4 |
| 20260508041532 | 42 | 207 | 0.0 | 1.0 | 0.00 | 0.00 | 0.00 | 99 | 988.8 |
| 20260508040318 | 42 | 208 | 0.0 | 1.0 | 0.00 | 0.00 | 0.00 | 99 | 988.4 |
| 20260508035120 | 42 | 208 | 0.0 | 0.0 | 0.00 | 0.00 | 0.01 | 99 | 988.4 |
| 20260508034526 | 42 | 209 | 0.0 | 0.0 | 0.00 | 0.00 | 0.01 | 99 | 988.1 |
| 20260508033916 | 42 | 209 | 0.0 | 0.0 | 0.00 | 0.00 | 0.01 | 99 | 988.4 |
| 20260508033321 | 43 | 209 | 0.0 | 0.0 | 0.00 | 0.00 | 0.01 | 99 | 988.1 |
| 20260508032734 | 43 | 209 | 0.0 | 0.0 | 0.00 | 0.00 | 0.01 | 99 | 988.1 |
| 20260508032147 | 43 | 210 | 0.0 | 0.0 | 0.00 | 0.00 | 0.01 | 99 | 988.1 |
| 20260508031526 | 43 | 210 | 0.0 | 0.0 | 0.00 | 0.00 | 0.01 | 99 | 988.1 |
| 20260508030931 | 44 | 210 | 0.0 | 0.0 | 0.00 | 0.00 | 0.01 | 99 | 988.1 |
| 20260508030311 | 44 | 210 | 0.0 | 0.0 | 0.00 | 0.00 | 0.01 | 99 | 987.8 |
| 20260508025719 | 44 | 210 | 0.0 | 0.0 | 0.00 | 0.00 | 0.01 | 98 | 987.8 |
| 20260508025114 | 44 | 211 | 0.0 | 1.0 | 0.00 | 0.00 | 0.01 | 98 | 987.8 |
| 20260508024525 | 44 | 226 | 0.0 | 0.0 | 0.00 | 0.00 | 0.01 | 98 | 987.1 |
| 20260508023946 | 44 | 232 | 0.0 | 0.0 | 0.00 | 0.00 | 0.01 | 98 | 987.4 |
| 20260508023341 | 45 | 232 | 0.0 | 0.0 | 0.00 | 0.00 | 0.01 | 98 | 987.4 |
| 20260508022723 | 45 | 232 | 0.0 | 0.0 | 0.00 | 0.00 | 0.01 | 98 | 987.4 |
| 20260508021515 | 46 | 232 | 0.0 | 0.0 | 0.00 | 0.00 | 0.01 | 97 | 987.1 |
| 20260508020945 | 46 | 232 | 0.0 | 0.0 | 0.00 | 0.00 | 0.01 | 97 | 987.1 |
| 20260508020349 | 46 | 193 | 0.0 | 0.0 | 0.00 | 0.00 | 0.01 | 97 | 987.1 |
| 20260508015738 | 46 | 193 | 0.0 | 0.0 | 0.00 | 0.00 | 0.01 | 96 | 986.7 |
| 20260508015145 | 46 | 193 | 0.0 | 0.0 | 0.00 | 0.00 | 0.01 | 96 | 986.7 |
| 20260508014517 | 47 | 193 | 0.0 | 0.0 | 0.00 | 0.00 | 0.01 | 96 | 986.4 |
| 20260508012725 | 48 | 192 | 0.0 | 1.0 | 0.00 | 0.00 | 0.01 | 94 | 986.4 |
| 20260508011528 | 48 | 193 | 0.0 | 1.0 | 0.00 | 0.00 | 0.01 | 93 | 986.1 |
| 20260508010935 | 49 | 193 | 0.0 | 0.0 | 0.00 | 0.00 | 0.01 | 93 | 986.1 |
| 20260508010349 | 49 | 186 | 0.0 | 1.0 | 0.00 | 0.00 | 0.01 | 92 | 985.7 |
| 20260508005736 | 50 | 193 | 0.0 | 1.0 | 0.00 | 0.00 | 0.01 | 91 | 985.7 |
| 20260508003908 | 51 | 193 | 0.0 | 1.0 | 0.00 | 0.00 | 0.01 | 88 | 985.7 |
| 20260508003340 | 52 | 241 | 0.0 | 1.0 | 0.00 | 0.00 | 0.01 | 87 | 985.7 |
| 20260508002734 | 52 | 54 | 0.0 | 2.0 | 0.00 | 0.00 | 0.01 | 86 | 985.4 |
| 20260508002110 | 53 | 101 | 0.0 | 1.0 | 0.00 | 0.00 | 0.01 | 85 | 985.4 |
| 20260508001532 | 53 | 79 | 0.0 | 1.0 | 0.00 | 0.00 | 0.01 | 84 | 985.4 |
| 20260508000949 | 53 | 88 | 1.0 | 1.0 | 0.00 | 0.00 | 0.01 | 84 | 985.4 |
| 20260508000335 | 54 | 41 | 0.0 | 1.0 | 0.00 | 0.00 | 0.01 | 83 | 985.1 |
| 20260507235747 | 54 | 203 | 1.0 | 1.0 | 0.00 | 0.00 | 0.01 | 81 | 985.1 |
| 20260507235119 | 55 | 280 | 0.0 | 2.0 | 0.00 | 0.00 | 0.01 | 77 | 985.1 |
| 20260507234551 | 56 | 233 | 1.0 | 3.0 | 0.00 | 0.00 | 0.01 | 75 | 984.7 |
| 20260507233938 | 56 | 249 | 1.0 | 2.0 | 0.00 | 0.00 | 0.01 | 75 | 984.7 |
| 20260507233347 | 56 | 211 | 0.0 | 1.0 | 0.00 | 0.00 | 0.01 | 73 | 984.7 |
| 20260507231535 | 57 | 226 | 2.0 | 3.0 | 0.00 | 0.00 | 0.01 | 72 | 984.4 |
| 20260507225744 | 58 | 226 | 1.0 | 2.0 | 0.00 | 0.00 | 0.01 | 70 | 984.4 |